sensor_id;sensor_type;location;lat;lon;timestamp;temperature;humidity
36690;DHT22;22676;51.120;3.702;2023-02-28T00:02:14;24.00;38.20
36690;DHT22;22676;51.120;3.702;2023-02-28T00:04:42;24.00;38.20
36690;DHT22;22676;51.120;3.702;2023-02-28T00:07:08;24.00;38.10
36690;DHT22;22676;51.120;3.702;2023-02-28T00:09:34;24.00;37.00
36690;DHT22;22676;51.120;3.702;2023-02-28T00:11:59;24.00;36.40
36690;DHT22;22676;51.120;3.702;2023-02-28T00:14:25;24.00;36.10
36690;DHT22;22676;51.120;3.702;2023-02-28T00:16:50;23.90;36.40
36690;DHT22;22676;51.120;3.702;2023-02-28T00:19:16;23.90;36.70
36690;DHT22;22676;51.120;3.702;2023-02-28T00:21:41;23.90;37.00
36690;DHT22;22676;51.120;3.702;2023-02-28T00:24:08;23.90;37.20
36690;DHT22;22676;51.120;3.702;2023-02-28T00:26:33;23.90;37.30
36690;DHT22;22676;51.120;3.702;2023-02-28T00:28:59;23.90;37.30
36690;DHT22;22676;51.120;3.702;2023-02-28T00:31:25;23.80;37.30
36690;DHT22;22676;51.120;3.702;2023-02-28T00:33:50;23.80;37.50
36690;DHT22;22676;51.120;3.702;2023-02-28T00:36:17;23.90;37.60
36690;DHT22;22676;51.120;3.702;2023-02-28T00:38:42;23.90;37.50
36690;DHT22;22676;51.120;3.702;2023-02-28T00:41:08;23.80;37.60
36690;DHT22;22676;51.120;3.702;2023-02-28T00:43:34;23.80;37.60
36690;DHT22;22676;51.120;3.702;2023-02-28T00:46:00;23.80;37.70
36690;DHT22;22676;51.120;3.702;2023-02-28T00:48:25;23.70;37.80
36690;DHT22;22676;51.120;3.702;2023-02-28T00:50:51;23.70;37.90
36690;DHT22;22676;51.120;3.702;2023-02-28T00:53:16;23.70;38.00
36690;DHT22;22676;51.120;3.702;2023-02-28T00:55:42;23.70;37.90
36690;DHT22;22676;51.120;3.702;2023-02-28T00:58:07;23.70;37.80
36690;DHT22;22676;51.120;3.702;2023-02-28T01:00:33;23.70;37.90
36690;DHT22;22676;51.120;3.702;2023-02-28T01:02:58;23.70;37.90
36690;DHT22;22676;51.120;3.702;2023-02-28T01:05:24;23.70;37.90
36690;DHT22;22676;51.120;3.702;2023-02-28T01:07:49;23.70;37.70
36690;DHT22;22676;51.120;3.702;2023-02-28T01:10:15;23.70;36.50
36690;DHT22;22676;51.120;3.702;2023-02-28T01:12:41;23.70;35.90
36690;DHT22;22676;51.120;3.702;2023-02-28T01:15:06;23.60;36.10
36690;DHT22;22676;51.120;3.702;2023-02-28T01:17:32;23.60;36.10
36690;DHT22;22676;51.120;3.702;2023-02-28T01:19:57;23.60;36.60
36690;DHT22;22676;51.120;3.702;2023-02-28T01:22:23;23.60;36.70
36690;DHT22;22676;51.120;3.702;2023-02-28T01:24:48;23.60;36.80
36690;DHT22;22676;51.120;3.702;2023-02-28T01:27:14;23.60;36.90
36690;DHT22;22676;51.120;3.702;2023-02-28T01:29:40;23.60;36.90
36690;DHT22;22676;51.120;3.702;2023-02-28T01:32:05;23.50;37.00
36690;DHT22;22676;51.120;3.702;2023-02-28T01:34:31;23.60;37.00
36690;DHT22;22676;51.120;3.702;2023-02-28T01:36:56;23.60;37.10
36690;DHT22;22676;51.120;3.702;2023-02-28T01:39:24;23.60;37.10
36690;DHT22;22676;51.120;3.702;2023-02-28T01:41:50;23.60;37.70
36690;DHT22;22676;51.120;3.702;2023-02-28T01:46:59;23.50;36.90
36690;DHT22;22676;51.120;3.702;2023-02-28T01:49:26;23.60;36.90
36690;DHT22;22676;51.120;3.702;2023-02-28T01:51:52;23.60;36.90
36690;DHT22;22676;51.120;3.702;2023-02-28T01:54:30;23.60;36.90
36690;DHT22;22676;51.120;3.702;2023-02-28T01:56:57;23.60;36.80
36690;DHT22;22676;51.120;3.702;2023-02-28T01:59:29;23.50;36.80
36690;DHT22;22676;51.120;3.702;2023-02-28T02:01:56;23.50;36.90
36690;DHT22;22676;51.120;3.702;2023-02-28T02:04:23;23.50;36.80
36690;DHT22;22676;51.120;3.702;2023-02-28T02:06:49;23.50;36.80
36690;DHT22;22676;51.120;3.702;2023-02-28T02:09:14;23.50;36.30
36690;DHT22;22676;51.120;3.702;2023-02-28T02:11:40;23.50;35.40
36690;DHT22;22676;51.120;3.702;2023-02-28T02:27:20;23.40;36.30
36690;DHT22;22676;51.120;3.702;2023-02-28T02:32:32;23.40;36.40
36690;DHT22;22676;51.120;3.702;2023-02-28T02:35:10;23.40;36.50
36690;DHT22;22676;51.120;3.702;2023-02-28T02:40:09;23.30;36.40
36690;DHT22;22676;51.120;3.702;2023-02-28T02:45:10;23.30;36.20
36690;DHT22;22676;51.120;3.702;2023-02-28T02:47:37;23.30;36.30
36690;DHT22;22676;51.120;3.702;2023-02-28T02:50:05;23.30;36.30
36690;DHT22;22676;51.120;3.702;2023-02-28T02:52:40;23.30;36.40
36690;DHT22;22676;51.120;3.702;2023-02-28T02:55:08;23.20;36.40
36690;DHT22;22676;51.120;3.702;2023-02-28T02:58:10;23.10;36.40
36690;DHT22;22676;51.120;3.702;2023-02-28T03:00:33;23.10;36.50
36690;DHT22;22676;51.120;3.702;2023-02-28T03:02:59;23.10;36.30
36690;DHT22;22676;51.120;3.702;2023-02-28T03:05:27;23.10;36.40
36690;DHT22;22676;51.120;3.702;2023-02-28T03:07:54;23.00;36.40
36690;DHT22;22676;51.120;3.702;2023-02-28T03:10:27;23.00;35.60
36690;DHT22;22676;51.120;3.702;2023-02-28T03:12:57;22.90;35.30
36690;DHT22;22676;51.120;3.702;2023-02-28T03:15:26;22.90;35.40
36690;DHT22;22676;51.120;3.702;2023-02-28T03:17:59;22.80;35.40
36690;DHT22;22676;51.120;3.702;2023-02-28T03:23:08;22.70;36.00
36690;DHT22;22676;51.120;3.702;2023-02-28T03:25:42;22.70;36.10
36690;DHT22;22676;51.120;3.702;2023-02-28T03:33:08;22.60;36.40
36690;DHT22;22676;51.120;3.702;2023-02-28T03:35:42;22.60;36.40
36690;DHT22;22676;51.120;3.702;2023-02-28T03:38:29;22.50;36.40
36690;DHT22;22676;51.120;3.702;2023-02-28T03:41:01;22.50;36.50
36690;DHT22;22676;51.120;3.702;2023-02-28T03:43:30;22.50;36.70
36690;DHT22;22676;51.120;3.702;2023-02-28T03:45:57;22.50;36.70
36690;DHT22;22676;51.120;3.702;2023-02-28T03:48:31;22.40;36.70
36690;DHT22;22676;51.120;3.702;2023-02-28T03:50:58;22.40;36.70
36690;DHT22;22676;51.120;3.702;2023-02-28T03:53:32;22.40;36.80
36690;DHT22;22676;51.120;3.702;2023-02-28T03:58:30;22.40;36.70
36690;DHT22;22676;51.120;3.702;2023-02-28T04:01:02;22.40;36.70
36690;DHT22;22676;51.120;3.702;2023-02-28T04:03:34;22.30;36.80
36690;DHT22;22676;51.120;3.702;2023-02-28T04:06:00;22.30;36.70
36690;DHT22;22676;51.120;3.702;2023-02-28T04:08:25;22.30;36.40
36690;DHT22;22676;51.120;3.702;2023-02-28T04:10:53;22.30;35.90
36690;DHT22;22676;51.120;3.702;2023-02-28T04:13:20;22.30;35.40
36690;DHT22;22676;51.120;3.702;2023-02-28T04:15:46;22.10;35.70
36690;DHT22;22676;51.120;3.702;2023-02-28T04:18:11;22.10;35.90
36690;DHT22;22676;51.120;3.702;2023-02-28T04:20:36;22.10;36.40
36690;DHT22;22676;51.120;3.702;2023-02-28T04:23:02;22.10;36.50
36690;DHT22;22676;51.120;3.702;2023-02-28T04:25:28;22.10;36.50
36690;DHT22;22676;51.120;3.702;2023-02-28T04:27:53;22.10;36.50
36690;DHT22;22676;51.120;3.702;2023-02-28T04:30:19;22.10;36.50
36690;DHT22;22676;51.120;3.702;2023-02-28T04:32:45;22.10;36.50
36690;DHT22;22676;51.120;3.702;2023-02-28T04:35:10;22.00;37.20
36690;DHT22;22676;51.120;3.702;2023-02-28T04:37:36;21.90;36.80
36690;DHT22;22676;51.120;3.702;2023-02-28T04:40:02;21.90;36.90
36690;DHT22;22676;51.120;3.702;2023-02-28T04:42:28;21.90;37.00
36690;DHT22;22676;51.120;3.702;2023-02-28T04:45:03;21.80;37.00
36690;DHT22;22676;51.120;3.702;2023-02-28T04:47:29;21.60;37.70
36690;DHT22;22676;51.120;3.702;2023-02-28T04:49:54;21.60;37.50
36690;DHT22;22676;51.120;3.702;2023-02-28T04:52:20;21.60;37.50
36690;DHT22;22676;51.120;3.702;2023-02-28T04:54:45;21.60;37.50
36690;DHT22;22676;51.120;3.702;2023-02-28T04:57:11;21.60;37.50
36690;DHT22;22676;51.120;3.702;2023-02-28T04:59:37;21.40;37.70
36690;DHT22;22676;51.120;3.702;2023-02-28T05:02:02;21.20;38.40
36690;DHT22;22676;51.120;3.702;2023-02-28T05:04:34;21.20;38.90
36690;DHT22;22676;51.120;3.702;2023-02-28T05:07:00;21.40;38.20
36690;DHT22;22676;51.120;3.702;2023-02-28T05:09:26;21.50;36.90
36690;DHT22;22676;51.120;3.702;2023-02-28T05:11:53;21.60;36.70
36690;DHT22;22676;51.120;3.702;2023-02-28T05:14:19;21.60;36.80
36690;DHT22;22676;51.120;3.702;2023-02-28T05:16:44;21.70;37.00
36690;DHT22;22676;51.120;3.702;2023-02-28T05:19:10;21.70;36.70
36690;DHT22;22676;51.120;3.702;2023-02-28T05:21:39;21.80;36.70
36690;DHT22;22676;51.120;3.702;2023-02-28T05:24:06;21.80;36.70
36690;DHT22;22676;51.120;3.702;2023-02-28T05:26:35;21.80;36.70
36690;DHT22;22676;51.120;3.702;2023-02-28T05:29:01;21.80;36.70
36690;DHT22;22676;51.120;3.702;2023-02-28T05:31:27;21.90;36.50
36690;DHT22;22676;51.120;3.702;2023-02-28T05:33:52;21.90;36.50
36690;DHT22;22676;51.120;3.702;2023-02-28T05:36:18;22.00;36.40
36690;DHT22;22676;51.120;3.702;2023-02-28T05:38:45;22.10;36.40
36690;DHT22;22676;51.120;3.702;2023-02-28T05:41:11;22.10;36.40
36690;DHT22;22676;51.120;3.702;2023-02-28T05:43:37;22.20;36.30
36690;DHT22;22676;51.120;3.702;2023-02-28T05:46:03;22.20;36.30
36690;DHT22;22676;51.120;3.702;2023-02-28T05:48:29;22.20;36.50
36690;DHT22;22676;51.120;3.702;2023-02-28T05:50:56;22.30;36.50
36690;DHT22;22676;51.120;3.702;2023-02-28T05:53:22;22.50;36.80
36690;DHT22;22676;51.120;3.702;2023-02-28T05:55:48;22.50;36.70
36690;DHT22;22676;51.120;3.702;2023-02-28T05:58:13;22.60;36.80
36690;DHT22;22676;51.120;3.702;2023-02-28T06:00:39;22.70;36.80
36690;DHT22;22676;51.120;3.702;2023-02-28T06:03:04;22.80;36.50
36690;DHT22;22676;51.120;3.702;2023-02-28T06:05:30;22.80;36.60
36690;DHT22;22676;51.120;3.702;2023-02-28T06:07:55;22.80;36.50
36690;DHT22;22676;51.120;3.702;2023-02-28T06:10:21;22.90;35.50
36690;DHT22;22676;51.120;3.702;2023-02-28T06:12:46;23.00;35.10
36690;DHT22;22676;51.120;3.702;2023-02-28T06:15:13;22.90;35.90
36690;DHT22;22676;51.120;3.702;2023-02-28T06:17:38;23.00;36.70
36690;DHT22;22676;51.120;3.702;2023-02-28T06:20:04;23.10;37.10
36690;DHT22;22676;51.120;3.702;2023-02-28T06:22:30;23.10;36.60
36690;DHT22;22676;51.120;3.702;2023-02-28T06:24:56;23.30;36.30
36690;DHT22;22676;51.120;3.702;2023-02-28T06:27:22;23.30;36.10
36690;DHT22;22676;51.120;3.702;2023-02-28T06:29:48;23.30;36.10
36690;DHT22;22676;51.120;3.702;2023-02-28T06:32:14;23.30;36.10
36690;DHT22;22676;51.120;3.702;2023-02-28T06:34:39;23.30;36.00
36690;DHT22;22676;51.120;3.702;2023-02-28T06:37:05;23.40;36.10
36690;DHT22;22676;51.120;3.702;2023-02-28T06:39:31;23.40;36.00
36690;DHT22;22676;51.120;3.702;2023-02-28T06:41:56;23.50;36.00
36690;DHT22;22676;51.120;3.702;2023-02-28T06:44:22;23.50;35.90
36690;DHT22;22676;51.120;3.702;2023-02-28T06:46:48;23.60;35.80
36690;DHT22;22676;51.120;3.702;2023-02-28T06:49:14;23.60;35.00
36690;DHT22;22676;51.120;3.702;2023-02-28T06:51:41;23.50;35.60
36690;DHT22;22676;51.120;3.702;2023-02-28T06:54:07;23.60;35.90
36690;DHT22;22676;51.120;3.702;2023-02-28T06:56:34;23.60;35.80
36690;DHT22;22676;51.120;3.702;2023-02-28T06:59:00;23.60;35.70
36690;DHT22;22676;51.120;3.702;2023-02-28T07:01:26;23.60;35.60
36690;DHT22;22676;51.120;3.702;2023-02-28T07:03:53;23.70;35.50
36690;DHT22;22676;51.120;3.702;2023-02-28T07:06:19;23.70;35.50
36690;DHT22;22676;51.120;3.702;2023-02-28T07:08:45;23.70;35.50
36690;DHT22;22676;51.120;3.702;2023-02-28T07:11:10;23.80;35.40
36690;DHT22;22676;51.120;3.702;2023-02-28T07:13:36;23.90;35.40
36690;DHT22;22676;51.120;3.702;2023-02-28T07:16:05;23.90;35.40
36690;DHT22;22676;51.120;3.702;2023-02-28T07:18:31;24.00;35.40
36690;DHT22;22676;51.120;3.702;2023-02-28T07:20:57;24.00;35.30
36690;DHT22;22676;51.120;3.702;2023-02-28T07:23:23;24.00;35.20
36690;DHT22;22676;51.120;3.702;2023-02-28T07:25:49;24.10;35.30
36690;DHT22;22676;51.120;3.702;2023-02-28T07:28:15;24.10;35.10
36690;DHT22;22676;51.120;3.702;2023-02-28T07:30:41;24.20;35.10
36690;DHT22;22676;51.120;3.702;2023-02-28T07:33:06;24.20;35.10
36690;DHT22;22676;51.120;3.702;2023-02-28T07:35:32;24.20;35.00
36690;DHT22;22676;51.120;3.702;2023-02-28T07:37:58;24.30;35.00
36690;DHT22;22676;51.120;3.702;2023-02-28T07:40:24;24.30;35.00
36690;DHT22;22676;51.120;3.702;2023-02-28T07:42:50;24.40;34.90
36690;DHT22;22676;51.120;3.702;2023-02-28T07:45:15;24.40;34.90
36690;DHT22;22676;51.120;3.702;2023-02-28T07:47:41;24.40;34.80
36690;DHT22;22676;51.120;3.702;2023-02-28T07:50:08;24.50;35.40
36690;DHT22;22676;51.120;3.702;2023-02-28T07:52:34;24.50;34.70
36690;DHT22;22676;51.120;3.702;2023-02-28T07:55:01;24.60;34.60
36690;DHT22;22676;51.120;3.702;2023-02-28T07:57:26;24.60;34.60
36690;DHT22;22676;51.120;3.702;2023-02-28T07:59:52;24.70;34.60
36690;DHT22;22676;51.120;3.702;2023-02-28T08:02:17;24.70;34.40
36690;DHT22;22676;51.120;3.702;2023-02-28T08:04:43;24.70;34.40
36690;DHT22;22676;51.120;3.702;2023-02-28T08:07:09;24.70;34.40
36690;DHT22;22676;51.120;3.702;2023-02-28T08:09:38;24.80;34.20
36690;DHT22;22676;51.120;3.702;2023-02-28T08:12:04;24.70;34.20
36690;DHT22;22676;51.120;3.702;2023-02-28T08:14:30;24.70;34.10
36690;DHT22;22676;51.120;3.702;2023-02-28T08:16:55;24.50;33.90
36690;DHT22;22676;51.120;3.702;2023-02-28T08:19:21;24.40;34.00
36690;DHT22;22676;51.120;3.702;2023-02-28T08:21:46;24.20;33.90
36690;DHT22;22676;51.120;3.702;2023-02-28T08:24:12;24.10;34.40
36690;DHT22;22676;51.120;3.702;2023-02-28T08:26:37;24.00;34.30
36690;DHT22;22676;51.120;3.702;2023-02-28T08:29:03;23.90;34.50
36690;DHT22;22676;51.120;3.702;2023-02-28T08:31:28;23.80;34.70
36690;DHT22;22676;51.120;3.702;2023-02-28T08:33:54;23.80;34.70
36690;DHT22;22676;51.120;3.702;2023-02-28T08:36:22;23.70;34.70
36690;DHT22;22676;51.120;3.702;2023-02-28T08:38:48;23.60;35.00
36690;DHT22;22676;51.120;3.702;2023-02-28T08:41:14;23.50;35.00
36690;DHT22;22676;51.120;3.702;2023-02-28T08:43:40;23.50;35.10
36690;DHT22;22676;51.120;3.702;2023-02-28T08:46:06;23.50;35.20
36690;DHT22;22676;51.120;3.702;2023-02-28T08:48:33;23.40;35.00
36690;DHT22;22676;51.120;3.702;2023-02-28T08:51:03;23.40;35.20
36690;DHT22;22676;51.120;3.702;2023-02-28T08:53:28;23.40;35.20
36690;DHT22;22676;51.120;3.702;2023-02-28T08:56:01;23.30;35.20
36690;DHT22;22676;51.120;3.702;2023-02-28T08:58:27;23.40;35.50
36690;DHT22;22676;51.120;3.702;2023-02-28T09:00:53;23.30;35.40
36690;DHT22;22676;51.120;3.702;2023-02-28T09:03:19;23.30;35.30
36690;DHT22;22676;51.120;3.702;2023-02-28T09:06:19;23.40;35.30
36690;DHT22;22676;51.120;3.702;2023-02-28T09:08:37;23.40;35.20
36690;DHT22;22676;51.120;3.702;2023-02-28T09:11:03;23.30;35.20
36690;DHT22;22676;51.120;3.702;2023-02-28T09:13:29;23.20;35.30
36690;DHT22;22676;51.120;3.702;2023-02-28T09:15:57;23.10;35.20
36690;DHT22;22676;51.120;3.702;2023-02-28T09:18:23;23.10;35.30
36690;DHT22;22676;51.120;3.702;2023-02-28T09:20:48;23.10;35.40
36690;DHT22;22676;51.120;3.702;2023-02-28T09:23:15;23.10;35.40
36690;DHT22;22676;51.120;3.702;2023-02-28T09:25:45;23.10;35.50
36690;DHT22;22676;51.120;3.702;2023-02-28T09:28:11;23.10;35.40
36690;DHT22;22676;51.120;3.702;2023-02-28T09:30:37;23.00;35.40
36690;DHT22;22676;51.120;3.702;2023-02-28T09:33:03;23.00;35.40
36690;DHT22;22676;51.120;3.702;2023-02-28T09:35:28;22.90;35.50
36690;DHT22;22676;51.120;3.702;2023-02-28T09:37:55;22.90;36.10
36690;DHT22;22676;51.120;3.702;2023-02-28T09:40:22;22.80;35.60
36690;DHT22;22676;51.120;3.702;2023-02-28T09:42:49;22.80;35.70
36690;DHT22;22676;51.120;3.702;2023-02-28T09:45:22;22.70;35.70
36690;DHT22;22676;51.120;3.702;2023-02-28T09:47:48;22.70;35.70
36690;DHT22;22676;51.120;3.702;2023-02-28T09:50:18;22.80;35.80
36690;DHT22;22676;51.120;3.702;2023-02-28T09:52:46;22.80;35.70
36690;DHT22;22676;51.120;3.702;2023-02-28T09:55:33;22.80;35.60
36690;DHT22;22676;51.120;3.702;2023-02-28T09:58:01;22.80;35.50
36690;DHT22;22676;51.120;3.702;2023-02-28T10:00:32;22.80;35.60
36690;DHT22;22676;51.120;3.702;2023-02-28T10:05:36;22.40;36.30
36690;DHT22;22676;51.120;3.702;2023-02-28T10:08:05;22.50;36.00
36690;DHT22;22676;51.120;3.702;2023-02-28T10:10:46;22.70;36.00
36690;DHT22;22676;51.120;3.702;2023-02-28T10:13:15;22.80;35.90
36690;DHT22;22676;51.120;3.702;2023-02-28T10:15:43;22.80;35.90
36690;DHT22;22676;51.120;3.702;2023-02-28T10:18:11;23.00;35.50
36690;DHT22;22676;51.120;3.702;2023-02-28T10:20:38;23.10;35.70
36690;DHT22;22676;51.120;3.702;2023-02-28T10:25:44;23.20;35.40
36690;DHT22;22676;51.120;3.702;2023-02-28T10:28:14;23.30;35.40
36690;DHT22;22676;51.120;3.702;2023-02-28T10:30:41;23.30;35.30
36690;DHT22;22676;51.120;3.702;2023-02-28T10:33:11;23.40;35.20
36690;DHT22;22676;51.120;3.702;2023-02-28T10:35:40;23.40;35.00
36690;DHT22;22676;51.120;3.702;2023-02-28T10:38:08;23.50;35.10
36690;DHT22;22676;51.120;3.702;2023-02-28T10:40:39;23.50;35.00
36690;DHT22;22676;51.120;3.702;2023-02-28T10:43:07;23.50;35.10
36690;DHT22;22676;51.120;3.702;2023-02-28T10:45:53;23.60;35.00
36690;DHT22;22676;51.120;3.702;2023-02-28T10:55:41;23.70;34.80
36690;DHT22;22676;51.120;3.702;2023-02-28T10:58:22;23.80;34.80
36690;DHT22;22676;51.120;3.702;2023-02-28T11:00:48;23.80;34.80
36690;DHT22;22676;51.120;3.702;2023-02-28T11:03:25;23.80;34.70
36690;DHT22;22676;51.120;3.702;2023-02-28T11:05:51;23.90;34.60
36690;DHT22;22676;51.120;3.702;2023-02-28T11:08:17;24.00;34.50
36690;DHT22;22676;51.120;3.702;2023-02-28T11:10:46;24.00;34.40
36690;DHT22;22676;51.120;3.702;2023-02-28T11:13:24;24.00;34.40
36690;DHT22;22676;51.120;3.702;2023-02-28T11:15:52;24.10;34.20
36690;DHT22;22676;51.120;3.702;2023-02-28T11:18:27;24.10;33.60
36690;DHT22;22676;51.120;3.702;2023-02-28T11:20:54;24.10;33.50
36690;DHT22;22676;51.120;3.702;2023-02-28T11:23:20;23.90;33.50
36690;DHT22;22676;51.120;3.702;2023-02-28T11:25:50;23.80;33.90
36690;DHT22;22676;51.120;3.702;2023-02-28T11:28:29;23.70;34.20
36690;DHT22;22676;51.120;3.702;2023-02-28T11:31:15;23.70;34.10
36690;DHT22;22676;51.120;3.702;2023-02-28T11:36:27;23.60;34.20
36690;DHT22;22676;51.120;3.702;2023-02-28T11:38:54;23.50;34.50
36690;DHT22;22676;51.120;3.702;2023-02-28T11:49:25;23.40;35.00
36690;DHT22;22676;51.120;3.702;2023-02-28T11:51:48;23.30;34.30
36690;DHT22;22676;51.120;3.702;2023-02-28T11:54:21;23.30;34.30
36690;DHT22;22676;51.120;3.702;2023-02-28T11:56:53;23.30;34.40
36690;DHT22;22676;51.120;3.702;2023-02-28T12:07:16;23.20;35.10
36690;DHT22;22676;51.120;3.702;2023-02-28T12:28:14;24.00;34.80
36690;DHT22;22676;51.120;3.702;2023-02-28T12:30:45;24.10;34.90
36690;DHT22;22676;51.120;3.702;2023-02-28T12:33:12;24.10;34.70
36690;DHT22;22676;51.120;3.702;2023-02-28T12:38:12;24.20;34.60
36690;DHT22;22676;51.120;3.702;2023-02-28T12:43:25;24.30;34.50
36690;DHT22;22676;51.120;3.702;2023-02-28T12:45:55;24.40;34.50
36690;DHT22;22676;51.120;3.702;2023-02-28T12:48:32;24.40;34.40
36690;DHT22;22676;51.120;3.702;2023-02-28T12:50:59;24.50;34.40
36690;DHT22;22676;51.120;3.702;2023-02-28T12:53:58;24.50;34.30
36690;DHT22;22676;51.120;3.702;2023-02-28T12:58:53;24.60;34.50
36690;DHT22;22676;51.120;3.702;2023-02-28T13:04:16;24.60;34.50
36690;DHT22;22676;51.120;3.702;2023-02-28T13:09:18;24.80;33.80
36690;DHT22;22676;51.120;3.702;2023-02-28T13:11:45;24.80;33.80
36690;DHT22;22676;51.120;3.702;2023-02-28T13:19:24;24.90;33.80
36690;DHT22;22676;51.120;3.702;2023-02-28T13:21:50;24.80;33.50
36690;DHT22;22676;51.120;3.702;2023-02-28T13:29:32;24.50;33.70
36690;DHT22;22676;51.120;3.702;2023-02-28T13:34:31;24.40;33.90
36690;DHT22;22676;51.120;3.702;2023-02-28T13:42:52;24.20;34.00
36690;DHT22;22676;51.120;3.702;2023-02-28T13:57:58;23.90;34.90
36690;DHT22;22676;51.120;3.702;2023-02-28T14:03:16;23.90;34.60
36690;DHT22;22676;51.120;3.702;2023-02-28T14:05:44;23.80;34.50
36690;DHT22;22676;51.120;3.702;2023-02-28T14:08:12;23.70;34.50
36690;DHT22;22676;51.120;3.702;2023-02-28T14:10:41;23.70;34.80
36690;DHT22;22676;51.120;3.702;2023-02-28T14:18:19;23.60;34.70
36690;DHT22;22676;51.120;3.702;2023-02-28T14:20:45;23.60;34.80
36690;DHT22;22676;51.120;3.702;2023-02-28T14:28:21;23.50;35.20
36690;DHT22;22676;51.120;3.702;2023-02-28T14:30:57;23.50;35.50
36690;DHT22;22676;51.120;3.702;2023-02-28T14:36:20;23.40;35.50
36690;DHT22;22676;51.120;3.702;2023-02-28T14:38:47;23.40;35.60
36690;DHT22;22676;51.120;3.702;2023-02-28T14:41:38;23.40;35.50
36690;DHT22;22676;51.120;3.702;2023-02-28T14:44:03;23.40;35.40
36690;DHT22;22676;51.120;3.702;2023-02-28T14:47:13;23.30;35.10
36690;DHT22;22676;51.120;3.702;2023-02-28T14:51:48;23.20;35.60
36690;DHT22;22676;51.120;3.702;2023-02-28T14:54:15;23.10;36.00
36690;DHT22;22676;51.120;3.702;2023-02-28T14:56:41;23.20;35.40
36690;DHT22;22676;51.120;3.702;2023-02-28T15:01:51;23.50;34.90
36690;DHT22;22676;51.120;3.702;2023-02-28T15:04:25;23.60;35.20
36690;DHT22;22676;51.120;3.702;2023-02-28T15:07:12;23.60;34.80
36690;DHT22;22676;51.120;3.702;2023-02-28T15:09:38;23.70;35.00
36690;DHT22;22676;51.120;3.702;2023-02-28T15:12:04;23.80;35.20
36690;DHT22;22676;51.120;3.702;2023-02-28T15:14:30;23.90;34.90
36690;DHT22;22676;51.120;3.702;2023-02-28T15:16:57;24.00;34.10
36690;DHT22;22676;51.120;3.702;2023-02-28T15:19:29;24.00;34.80
36690;DHT22;22676;51.120;3.702;2023-02-28T15:21:57;24.00;34.90
36690;DHT22;22676;51.120;3.702;2023-02-28T15:24:30;24.10;34.80
36690;DHT22;22676;51.120;3.702;2023-02-28T15:26:58;24.10;34.80
36690;DHT22;22676;51.120;3.702;2023-02-28T15:29:26;24.10;34.90
36690;DHT22;22676;51.120;3.702;2023-02-28T15:31:58;24.20;34.90
36690;DHT22;22676;51.120;3.702;2023-02-28T15:34:41;24.20;34.80
36690;DHT22;22676;51.120;3.702;2023-02-28T15:39:52;24.30;34.50
36690;DHT22;22676;51.120;3.702;2023-02-28T15:42:18;24.40;34.40
36690;DHT22;22676;51.120;3.702;2023-02-28T15:44:44;24.40;33.50
36690;DHT22;22676;51.120;3.702;2023-02-28T15:47:20;24.30;33.10
36690;DHT22;22676;51.120;3.702;2023-02-28T15:50:20;24.40;32.90
36690;DHT22;22676;51.120;3.702;2023-02-28T15:57:34;24.00;33.20
36690;DHT22;22676;51.120;3.702;2023-02-28T16:00:00;24.00;33.30
36690;DHT22;22676;51.120;3.702;2023-02-28T16:02:36;24.00;33.20
36690;DHT22;22676;51.120;3.702;2023-02-28T16:07:34;23.80;33.50
36690;DHT22;22676;51.120;3.702;2023-02-28T16:10:00;23.70;34.10
36690;DHT22;22676;51.120;3.702;2023-02-28T16:12:30;23.70;33.40
36690;DHT22;22676;51.120;3.702;2023-02-28T16:14:57;23.70;33.50
36690;DHT22;22676;51.120;3.702;2023-02-28T16:17:24;23.60;33.80
36690;DHT22;22676;51.120;3.702;2023-02-28T16:19:51;23.70;32.70
36690;DHT22;22676;51.120;3.702;2023-02-28T16:22:16;23.50;32.90
36690;DHT22;22676;51.120;3.702;2023-02-28T16:24:42;23.50;32.80
36690;DHT22;22676;51.120;3.702;2023-02-28T16:27:10;23.50;32.00
36690;DHT22;22676;51.120;3.702;2023-02-28T16:29:41;23.40;31.60
36690;DHT22;22676;51.120;3.702;2023-02-28T16:32:07;23.40;31.30
36690;DHT22;22676;51.120;3.702;2023-02-28T16:34:32;23.30;31.00
36690;DHT22;22676;51.120;3.702;2023-02-28T16:36:58;23.30;30.90
36690;DHT22;22676;51.120;3.702;2023-02-28T16:39:24;23.20;30.60
36690;DHT22;22676;51.120;3.702;2023-02-28T16:41:49;23.20;30.50
36690;DHT22;22676;51.120;3.702;2023-02-28T16:44:28;23.10;30.20
36690;DHT22;22676;51.120;3.702;2023-02-28T16:46:55;23.00;30.30
36690;DHT22;22676;51.120;3.702;2023-02-28T16:49:20;23.00;30.20
36690;DHT22;22676;51.120;3.702;2023-02-28T16:51:46;22.90;30.20
36690;DHT22;22676;51.120;3.702;2023-02-28T16:54:12;22.90;30.00
36690;DHT22;22676;51.120;3.702;2023-02-28T16:56:38;22.90;29.80
36690;DHT22;22676;51.120;3.702;2023-02-28T16:59:05;22.90;30.20
36690;DHT22;22676;51.120;3.702;2023-02-28T17:01:31;23.00;30.00
36690;DHT22;22676;51.120;3.702;2023-02-28T17:03:57;23.00;30.30
36690;DHT22;22676;51.120;3.702;2023-02-28T17:06:24;22.80;31.20
36690;DHT22;22676;51.120;3.702;2023-02-28T17:08:50;22.80;30.80
36690;DHT22;22676;51.120;3.702;2023-02-28T17:11:16;23.00;30.20
36690;DHT22;22676;51.120;3.702;2023-02-28T17:13:42;22.90;30.70
36690;DHT22;22676;51.120;3.702;2023-02-28T17:16:17;22.90;30.80
36690;DHT22;22676;51.120;3.702;2023-02-28T17:18:44;22.80;31.20
36690;DHT22;22676;51.120;3.702;2023-02-28T17:21:12;22.80;31.80
36690;DHT22;22676;51.120;3.702;2023-02-28T17:23:38;22.70;32.10
36690;DHT22;22676;51.120;3.702;2023-02-28T17:26:04;22.70;32.20
36690;DHT22;22676;51.120;3.702;2023-02-28T17:28:32;22.70;32.30
36690;DHT22;22676;51.120;3.702;2023-02-28T17:30:57;22.70;32.20
36690;DHT22;22676;51.120;3.702;2023-02-28T17:33:23;22.80;32.10
36690;DHT22;22676;51.120;3.702;2023-02-28T17:35:48;22.90;32.00
36690;DHT22;22676;51.120;3.702;2023-02-28T17:38:16;22.90;32.60
36690;DHT22;22676;51.120;3.702;2023-02-28T17:40:41;22.90;31.80
36690;DHT22;22676;51.120;3.702;2023-02-28T17:43:07;23.00;31.60
36690;DHT22;22676;51.120;3.702;2023-02-28T17:45:32;23.10;31.70
36690;DHT22;22676;51.120;3.702;2023-02-28T17:48:00;23.20;31.60
36690;DHT22;22676;51.120;3.702;2023-02-28T17:50:26;23.10;32.00
36690;DHT22;22676;51.120;3.702;2023-02-28T17:52:52;23.00;31.60
36690;DHT22;22676;51.120;3.702;2023-02-28T17:55:17;23.20;31.10
36690;DHT22;22676;51.120;3.702;2023-02-28T17:57:44;23.10;31.40
36690;DHT22;22676;51.120;3.702;2023-02-28T18:00:11;23.30;31.10
36690;DHT22;22676;51.120;3.702;2023-02-28T18:02:37;23.40;31.20
36690;DHT22;22676;51.120;3.702;2023-02-28T18:05:03;23.50;31.00
36690;DHT22;22676;51.120;3.702;2023-02-28T18:07:29;23.50;30.60
36690;DHT22;22676;51.120;3.702;2023-02-28T18:09:55;23.20;31.30
36690;DHT22;22676;51.120;3.702;2023-02-28T18:12:20;23.20;31.10
36690;DHT22;22676;51.120;3.702;2023-02-28T18:14:46;23.30;31.00